sensor_id;sensor_type;location;lat;lon;timestamp;temperature;humidity
32660;DHT22;19064;47.912;12.308;2023-05-07T00:00:37;12.80;99.90
32660;DHT22;19064;47.912;12.308;2023-05-07T00:03:04;12.80;99.90
32660;DHT22;19064;47.912;12.308;2023-05-07T00:05:30;12.80;99.90
32660;DHT22;19064;47.912;12.308;2023-05-07T00:07:57;12.70;99.90
32660;DHT22;19064;47.912;12.308;2023-05-07T00:10:24;12.70;99.90
32660;DHT22;19064;47.912;12.308;2023-05-07T00:12:51;12.50;99.90
32660;DHT22;19064;47.912;12.308;2023-05-07T00:15:19;12.60;99.90
32660;DHT22;19064;47.912;12.308;2023-05-07T00:17:46;12.60;99.90
32660;DHT22;19064;47.912;12.308;2023-05-07T00:20:12;12.60;99.90
32660;DHT22;19064;47.912;12.308;2023-05-07T00:22:39;12.50;99.90
32660;DHT22;19064;47.912;12.308;2023-05-07T00:25:06;12.50;99.90
32660;DHT22;19064;47.912;12.308;2023-05-07T00:27:33;12.30;99.90
32660;DHT22;19064;47.912;12.308;2023-05-07T00:30:00;12.10;99.90
32660;DHT22;19064;47.912;12.308;2023-05-07T00:32:28;12.00;99.90
32660;DHT22;19064;47.912;12.308;2023-05-07T00:34:55;11.90;99.90
32660;DHT22;19064;47.912;12.308;2023-05-07T00:37:22;12.10;99.90
32660;DHT22;19064;47.912;12.308;2023-05-07T00:39:48;12.30;99.90
32660;DHT22;19064;47.912;12.308;2023-05-07T00:42:15;12.40;99.90
32660;DHT22;19064;47.912;12.308;2023-05-07T00:44:42;12.30;99.90
32660;DHT22;19064;47.912;12.308;2023-05-07T00:47:08;12.30;99.90
32660;DHT22;19064;47.912;12.308;2023-05-07T00:49:38;12.30;99.90
32660;DHT22;19064;47.912;12.308;2023-05-07T00:52:07;12.40;99.90
32660;DHT22;19064;47.912;12.308;2023-05-07T00:54:34;12.30;99.90
32660;DHT22;19064;47.912;12.308;2023-05-07T00:57:02;12.40;99.90
32660;DHT22;19064;47.912;12.308;2023-05-07T00:59:30;12.30;99.90
32660;DHT22;19064;47.912;12.308;2023-05-07T01:01:57;12.40;99.90
32660;DHT22;19064;47.912;12.308;2023-05-07T01:04:23;12.40;99.90
32660;DHT22;19064;47.912;12.308;2023-05-07T01:06:52;12.50;99.90
32660;DHT22;19064;47.912;12.308;2023-05-07T01:09:21;12.40;99.90
32660;DHT22;19064;47.912;12.308;2023-05-07T01:11:49;12.40;99.90
32660;DHT22;19064;47.912;12.308;2023-05-07T01:14:17;12.50;99.90
32660;DHT22;19064;47.912;12.308;2023-05-07T01:16:44;12.60;99.90
32660;DHT22;19064;47.912;12.308;2023-05-07T01:19:12;12.50;99.90
32660;DHT22;19064;47.912;12.308;2023-05-07T01:21:44;12.40;99.90
32660;DHT22;19064;47.912;12.308;2023-05-07T01:24:13;12.40;99.90
32660;DHT22;19064;47.912;12.308;2023-05-07T01:26:40;12.40;99.90
32660;DHT22;19064;47.912;12.308;2023-05-07T01:29:07;12.30;99.90
32660;DHT22;19064;47.912;12.308;2023-05-07T01:31:34;12.30;99.90
32660;DHT22;19064;47.912;12.308;2023-05-07T01:34:03;12.30;99.90
32660;DHT22;19064;47.912;12.308;2023-05-07T01:36:32;12.30;99.90
32660;DHT22;19064;47.912;12.308;2023-05-07T01:38:59;12.20;99.90
32660;DHT22;19064;47.912;12.308;2023-05-07T01:41:28;12.20;99.90
32660;DHT22;19064;47.912;12.308;2023-05-07T01:43:55;12.10;99.90
32660;DHT22;19064;47.912;12.308;2023-05-07T01:46:24;12.10;99.90
32660;DHT22;19064;47.912;12.308;2023-05-07T01:48:52;12.10;99.90
32660;DHT22;19064;47.912;12.308;2023-05-07T01:51:19;12.10;99.90
32660;DHT22;19064;47.912;12.308;2023-05-07T01:53:46;12.00;99.90
32660;DHT22;19064;47.912;12.308;2023-05-07T01:56:16;12.10;99.90
32660;DHT22;19064;47.912;12.308;2023-05-07T01:58:44;12.00;99.90
32660;DHT22;19064;47.912;12.308;2023-05-07T02:01:12;12.00;99.90
32660;DHT22;19064;47.912;12.308;2023-05-07T02:03:39;12.10;99.90
32660;DHT22;19064;47.912;12.308;2023-05-07T02:06:06;12.20;99.90
32660;DHT22;19064;47.912;12.308;2023-05-07T02:08:32;12.30;99.90
32660;DHT22;19064;47.912;12.308;2023-05-07T02:10:59;12.30;99.90
32660;DHT22;19064;47.912;12.308;2023-05-07T02:13:28;12.30;99.90
32660;DHT22;19064;47.912;12.308;2023-05-07T02:15:56;12.30;99.90
32660;DHT22;19064;47.912;12.308;2023-05-07T02:18:23;12.20;99.90
32660;DHT22;19064;47.912;12.308;2023-05-07T02:20:50;12.10;99.90
32660;DHT22;19064;47.912;12.308;2023-05-07T02:23:17;12.00;99.90
32660;DHT22;19064;47.912;12.308;2023-05-07T02:25:43;11.90;99.90
32660;DHT22;19064;47.912;12.308;2023-05-07T02:28:11;11.80;99.90
32660;DHT22;19064;47.912;12.308;2023-05-07T02:30:38;11.80;99.90
32660;DHT22;19064;47.912;12.308;2023-05-07T02:33:06;11.80;99.90
32660;DHT22;19064;47.912;12.308;2023-05-07T02:35:33;11.70;99.90
32660;DHT22;19064;47.912;12.308;2023-05-07T02:38:00;11.70;99.90
32660;DHT22;19064;47.912;12.308;2023-05-07T02:40:27;11.70;99.90
32660;DHT22;19064;47.912;12.308;2023-05-07T02:42:53;11.80;99.90
32660;DHT22;19064;47.912;12.308;2023-05-07T02:45:20;11.70;99.90
32660;DHT22;19064;47.912;12.308;2023-05-07T02:47:47;11.60;99.90
32660;DHT22;19064;47.912;12.308;2023-05-07T02:50:15;11.60;99.90
32660;DHT22;19064;47.912;12.308;2023-05-07T02:52:42;11.50;99.90
32660;DHT22;19064;47.912;12.308;2023-05-07T02:55:09;11.50;99.90
32660;DHT22;19064;47.912;12.308;2023-05-07T02:57:36;11.60;99.90
32660;DHT22;19064;47.912;12.308;2023-05-07T03:00:11;11.60;99.90
32660;DHT22;19064;47.912;12.308;2023-05-07T03:02:38;11.50;99.90
32660;DHT22;19064;47.912;12.308;2023-05-07T03:05:06;11.60;99.90
32660;DHT22;19064;47.912;12.308;2023-05-07T03:07:34;11.60;99.90
32660;DHT22;19064;47.912;12.308;2023-05-07T03:10:01;11.50;99.90
32660;DHT22;19064;47.912;12.308;2023-05-07T03:12:28;11.40;99.90
32660;DHT22;19064;47.912;12.308;2023-05-07T03:14:54;11.30;99.90
32660;DHT22;19064;47.912;12.308;2023-05-07T03:17:21;11.20;99.90
32660;DHT22;19064;47.912;12.308;2023-05-07T03:19:48;11.20;99.90
32660;DHT22;19064;47.912;12.308;2023-05-07T03:22:15;11.30;99.90
32660;DHT22;19064;47.912;12.308;2023-05-07T03:24:43;11.20;99.90
32660;DHT22;19064;47.912;12.308;2023-05-07T03:27:10;11.20;99.90
32660;DHT22;19064;47.912;12.308;2023-05-07T03:29:36;11.10;99.90
32660;DHT22;19064;47.912;12.308;2023-05-07T03:32:03;11.00;99.90
32660;DHT22;19064;47.912;12.308;2023-05-07T03:34:31;11.10;99.90
32660;DHT22;19064;47.912;12.308;2023-05-07T03:36:58;11.00;99.90
32660;DHT22;19064;47.912;12.308;2023-05-07T03:39:24;10.90;99.90
32660;DHT22;19064;47.912;12.308;2023-05-07T03:41:53;10.90;99.90
32660;DHT22;19064;47.912;12.308;2023-05-07T03:44:19;10.90;99.90
32660;DHT22;19064;47.912;12.308;2023-05-07T03:46:46;10.80;99.90
32660;DHT22;19064;47.912;12.308;2023-05-07T03:49:13;10.80;99.90
32660;DHT22;19064;47.912;12.308;2023-05-07T03:51:39;10.80;99.90
32660;DHT22;19064;47.912;12.308;2023-05-07T03:54:06;10.90;99.90
32660;DHT22;19064;47.912;12.308;2023-05-07T03:56:33;10.80;99.90
32660;DHT22;19064;47.912;12.308;2023-05-07T03:59:01;10.80;99.90
32660;DHT22;19064;47.912;12.308;2023-05-07T04:01:29;10.80;99.90
32660;DHT22;19064;47.912;12.308;2023-05-07T04:03:56;10.80;99.90
32660;DHT22;19064;47.912;12.308;2023-05-07T04:06:23;11.00;99.90
32660;DHT22;19064;47.912;12.308;2023-05-07T04:08:50;10.90;99.90
32660;DHT22;19064;47.912;12.308;2023-05-07T04:11:16;11.00;99.90
32660;DHT22;19064;47.912;12.308;2023-05-07T04:13:43;11.20;99.90
32660;DHT22;19064;47.912;12.308;2023-05-07T04:16:11;11.30;99.90
32660;DHT22;19064;47.912;12.308;2023-05-07T04:18:38;11.20;99.90
32660;DHT22;19064;47.912;12.308;2023-05-07T04:21:05;11.20;99.90
32660;DHT22;19064;47.912;12.308;2023-05-07T04:23:32;11.10;99.90
32660;DHT22;19064;47.912;12.308;2023-05-07T04:25:58;11.20;99.90
32660;DHT22;19064;47.912;12.308;2023-05-07T04:28:26;11.30;99.90
32660;DHT22;19064;47.912;12.308;2023-05-07T04:30:52;11.40;99.90
32660;DHT22;19064;47.912;12.308;2023-05-07T04:33:21;11.50;99.90
32660;DHT22;19064;47.912;12.308;2023-05-07T04:35:47;11.50;99.90
32660;DHT22;19064;47.912;12.308;2023-05-07T04:38:14;11.60;99.90
32660;DHT22;19064;47.912;12.308;2023-05-07T04:40:41;11.70;99.90
32660;DHT22;19064;47.912;12.308;2023-05-07T04:43:08;11.70;99.90
32660;DHT22;19064;47.912;12.308;2023-05-07T04:45:35;11.80;99.90
32660;DHT22;19064;47.912;12.308;2023-05-07T04:48:02;11.80;99.90
32660;DHT22;19064;47.912;12.308;2023-05-07T04:50:30;11.70;99.90
32660;DHT22;19064;47.912;12.308;2023-05-07T04:52:57;11.80;99.90
32660;DHT22;19064;47.912;12.308;2023-05-07T04:55:24;11.90;99.90
32660;DHT22;19064;47.912;12.308;2023-05-07T04:57:52;11.80;99.90
32660;DHT22;19064;47.912;12.308;2023-05-07T05:00:19;11.80;99.90
32660;DHT22;19064;47.912;12.308;2023-05-07T05:02:46;11.80;99.90
32660;DHT22;19064;47.912;12.308;2023-05-07T05:05:13;11.70;99.90
32660;DHT22;19064;47.912;12.308;2023-05-07T05:07:41;11.80;99.90
32660;DHT22;19064;47.912;12.308;2023-05-07T05:10:07;11.90;99.90
32660;DHT22;19064;47.912;12.308;2023-05-07T05:12:34;12.00;99.90
32660;DHT22;19064;47.912;12.308;2023-05-07T05:15:01;12.10;99.90
32660;DHT22;19064;47.912;12.308;2023-05-07T05:17:27;12.20;99.90
32660;DHT22;19064;47.912;12.308;2023-05-07T05:19:54;12.30;99.90
32660;DHT22;19064;47.912;12.308;2023-05-07T05:22:21;12.40;99.90
32660;DHT22;19064;47.912;12.308;2023-05-07T05:24:49;12.50;99.90
32660;DHT22;19064;47.912;12.308;2023-05-07T05:27:16;12.60;99.90
32660;DHT22;19064;47.912;12.308;2023-05-07T05:29:43;12.60;99.90
32660;DHT22;19064;47.912;12.308;2023-05-07T05:32:09;12.60;99.90
32660;DHT22;19064;47.912;12.308;2023-05-07T05:34:36;12.70;99.90
32660;DHT22;19064;47.912;12.308;2023-05-07T05:37:03;12.80;99.90
32660;DHT22;19064;47.912;12.308;2023-05-07T05:39:29;12.80;99.90
32660;DHT22;19064;47.912;12.308;2023-05-07T05:41:57;12.90;99.90
32660;DHT22;19064;47.912;12.308;2023-05-07T05:44:24;13.00;99.90
32660;DHT22;19064;47.912;12.308;2023-05-07T05:46:51;13.10;99.90
32660;DHT22;19064;47.912;12.308;2023-05-07T05:49:20;13.10;99.90
32660;DHT22;19064;47.912;12.308;2023-05-07T05:51:47;13.10;99.90
32660;DHT22;19064;47.912;12.308;2023-05-07T05:54:13;13.20;99.90
32660;DHT22;19064;47.912;12.308;2023-05-07T05:56:41;13.20;99.90
32660;DHT22;19064;47.912;12.308;2023-05-07T05:59:09;13.20;99.90
32660;DHT22;19064;47.912;12.308;2023-05-07T06:01:36;13.20;99.90
32660;DHT22;19064;47.912;12.308;2023-05-07T06:04:03;13.20;99.90
32660;DHT22;19064;47.912;12.308;2023-05-07T06:06:30;13.30;99.90
32660;DHT22;19064;47.912;12.308;2023-05-07T06:08:57;13.30;99.90
32660;DHT22;19064;47.912;12.308;2023-05-07T06:11:24;13.40;99.90
32660;DHT22;19064;47.912;12.308;2023-05-07T06:13:51;13.40;99.90
32660;DHT22;19064;47.912;12.308;2023-05-07T06:16:19;13.40;99.90
32660;DHT22;19064;47.912;12.308;2023-05-07T06:18:46;13.50;99.90
32660;DHT22;19064;47.912;12.308;2023-05-07T06:21:14;13.60;99.90
32660;DHT22;19064;47.912;12.308;2023-05-07T06:23:42;13.70;99.90
32660;DHT22;19064;47.912;12.308;2023-05-07T06:26:11;13.70;99.90
32660;DHT22;19064;47.912;12.308;2023-05-07T06:28:38;13.80;99.90
32660;DHT22;19064;47.912;12.308;2023-05-07T06:31:13;13.90;99.90
32660;DHT22;19064;47.912;12.308;2023-05-07T06:33:43;14.00;99.90
32660;DHT22;19064;47.912;12.308;2023-05-07T06:36:11;14.10;99.90
32660;DHT22;19064;47.912;12.308;2023-05-07T06:38:39;14.10;99.90
32660;DHT22;19064;47.912;12.308;2023-05-07T06:41:07;14.30;99.90
32660;DHT22;19064;47.912;12.308;2023-05-07T06:43:35;14.40;99.90
32660;DHT22;19064;47.912;12.308;2023-05-07T06:46:04;14.50;99.90
32660;DHT22;19064;47.912;12.308;2023-05-07T06:48:32;14.50;99.90
32660;DHT22;19064;47.912;12.308;2023-05-07T06:51:01;14.60;99.90
32660;DHT22;19064;47.912;12.308;2023-05-07T06:53:29;14.60;99.90
32660;DHT22;19064;47.912;12.308;2023-05-07T06:55:57;14.70;99.90
32660;DHT22;19064;47.912;12.308;2023-05-07T06:58:25;14.90;99.90
32660;DHT22;19064;47.912;12.308;2023-05-07T07:00:53;15.00;99.90
32660;DHT22;19064;47.912;12.308;2023-05-07T07:03:21;15.10;99.90
32660;DHT22;19064;47.912;12.308;2023-05-07T07:05:51;15.30;99.90
32660;DHT22;19064;47.912;12.308;2023-05-07T07:08:21;15.40;99.90
32660;DHT22;19064;47.912;12.308;2023-05-07T07:10:53;15.50;99.90
32660;DHT22;19064;47.912;12.308;2023-05-07T07:13:28;15.50;99.90
32660;DHT22;19064;47.912;12.308;2023-05-07T07:15:56;15.70;99.90
32660;DHT22;19064;47.912;12.308;2023-05-07T07:18:24;15.80;99.90
32660;DHT22;19064;47.912;12.308;2023-05-07T07:20:52;15.90;99.90
32660;DHT22;19064;47.912;12.308;2023-05-07T07:23:22;16.00;99.90
32660;DHT22;19064;47.912;12.308;2023-05-07T07:25:50;16.00;99.90
32660;DHT22;19064;47.912;12.308;2023-05-07T07:28:20;16.10;99.90
32660;DHT22;19064;47.912;12.308;2023-05-07T07:30:48;16.20;99.90
32660;DHT22;19064;47.912;12.308;2023-05-07T07:33:15;16.30;99.90
32660;DHT22;19064;47.912;12.308;2023-05-07T07:35:43;16.40;99.90
32660;DHT22;19064;47.912;12.308;2023-05-07T07:38:11;16.50;99.90
32660;DHT22;19064;47.912;12.308;2023-05-07T07:40:44;16.60;99.90
32660;DHT22;19064;47.912;12.308;2023-05-07T07:43:12;16.70;99.90
32660;DHT22;19064;47.912;12.308;2023-05-07T07:45:40;16.70;99.90
32660;DHT22;19064;47.912;12.308;2023-05-07T07:48:08;16.70;99.90
32660;DHT22;19064;47.912;12.308;2023-05-07T07:50:35;16.80;99.90
32660;DHT22;19064;47.912;12.308;2023-05-07T07:53:03;16.90;99.90
32660;DHT22;19064;47.912;12.308;2023-05-07T07:55:31;17.00;99.90
32660;DHT22;19064;47.912;12.308;2023-05-07T07:58:04;17.00;99.90
32660;DHT22;19064;47.912;12.308;2023-05-07T08:00:32;17.10;99.90
32660;DHT22;19064;47.912;12.308;2023-05-07T08:03:01;17.10;99.90
32660;DHT22;19064;47.912;12.308;2023-05-07T08:05:30;17.10;99.90
32660;DHT22;19064;47.912;12.308;2023-05-07T08:07:58;17.10;99.90
32660;DHT22;19064;47.912;12.308;2023-05-07T08:10:26;17.10;99.90
32660;DHT22;19064;47.912;12.308;2023-05-07T08:12:54;17.20;99.90
32660;DHT22;19064;47.912;12.308;2023-05-07T08:15:24;17.40;99.90
32660;DHT22;19064;47.912;12.308;2023-05-07T08:17:52;17.50;99.90
32660;DHT22;19064;47.912;12.308;2023-05-07T08:20:20;17.60;99.90
32660;DHT22;19064;47.912;12.308;2023-05-07T08:22:51;17.70;99.90
32660;DHT22;19064;47.912;12.308;2023-05-07T08:25:22;17.80;99.90
32660;DHT22;19064;47.912;12.308;2023-05-07T08:27:50;17.90;99.90
32660;DHT22;19064;47.912;12.308;2023-05-07T08:30:18;18.00;99.90
32660;DHT22;19064;47.912;12.308;2023-05-07T08:32:48;18.00;99.90
32660;DHT22;19064;47.912;12.308;2023-05-07T08:35:16;18.00;99.90
32660;DHT22;19064;47.912;12.308;2023-05-07T08:37:43;18.10;99.90
32660;DHT22;19064;47.912;12.308;2023-05-07T08:40:12;18.20;99.90
32660;DHT22;19064;47.912;12.308;2023-05-07T08:42:40;18.30;99.90
32660;DHT22;19064;47.912;12.308;2023-05-07T08:45:09;18.40;99.90
32660;DHT22;19064;47.912;12.308;2023-05-07T08:47:43;18.50;99.90
32660;DHT22;19064;47.912;12.308;2023-05-07T08:50:13;18.60;99.90
32660;DHT22;19064;47.912;12.308;2023-05-07T08:52:42;18.70;99.90
32660;DHT22;19064;47.912;12.308;2023-05-07T08:55:10;18.80;99.90
32660;DHT22;19064;47.912;12.308;2023-05-07T08:57:38;18.80;99.90
32660;DHT22;19064;47.912;12.308;2023-05-07T09:00:07;18.80;99.90
32660;DHT22;19064;47.912;12.308;2023-05-07T09:02:36;18.90;99.90
32660;DHT22;19064;47.912;12.308;2023-05-07T09:05:05;18.80;99.90
32660;DHT22;19064;47.912;12.308;2023-05-07T09:07:34;18.80;99.90
32660;DHT22;19064;47.912;12.308;2023-05-07T09:10:02;18.90;99.90
32660;DHT22;19064;47.912;12.308;2023-05-07T09:12:30;19.00;99.90
32660;DHT22;19064;47.912;12.308;2023-05-07T09:14:58;19.10;99.90
32660;DHT22;19064;47.912;12.308;2023-05-07T09:17:27;19.10;99.90
32660;DHT22;19064;47.912;12.308;2023-05-07T09:19:55;19.20;99.90
32660;DHT22;19064;47.912;12.308;2023-05-07T09:22:24;19.30;99.90
32660;DHT22;19064;47.912;12.308;2023-05-07T09:24:53;19.40;99.90
32660;DHT22;19064;47.912;12.308;2023-05-07T09:27:20;19.50;99.90
32660;DHT22;19064;47.912;12.308;2023-05-07T09:29:48;19.50;99.90
32660;DHT22;19064;47.912;12.308;2023-05-07T09:32:16;19.60;99.90
32660;DHT22;19064;47.912;12.308;2023-05-07T09:34:44;19.70;99.90
32660;DHT22;19064;47.912;12.308;2023-05-07T09:37:12;19.70;99.90
32660;DHT22;19064;47.912;12.308;2023-05-07T09:39:43;19.80;99.90
32660;DHT22;19064;47.912;12.308;2023-05-07T09:42:12;19.80;99.90
32660;DHT22;19064;47.912;12.308;2023-05-07T09:44:43;19.90;99.90
32660;DHT22;19064;47.912;12.308;2023-05-07T09:47:11;20.00;99.90
32660;DHT22;19064;47.912;12.308;2023-05-07T09:49:42;20.10;99.90
32660;DHT22;19064;47.912;12.308;2023-05-07T09:52:13;20.00;99.90
32660;DHT22;19064;47.912;12.308;2023-05-07T09:54:41;19.90;99.90
32660;DHT22;19064;47.912;12.308;2023-05-07T09:57:13;20.00;99.90
32660;DHT22;19064;47.912;12.308;2023-05-07T09:59:43;20.00;99.90
32660;DHT22;19064;47.912;12.308;2023-05-07T10:02:19;20.00;99.90
32660;DHT22;19064;47.912;12.308;2023-05-07T10:04:48;20.00;99.90
32660;DHT22;19064;47.912;12.308;2023-05-07T10:07:17;20.00;99.90
32660;DHT22;19064;47.912;12.308;2023-05-07T10:09:46;20.10;99.90
32660;DHT22;19064;47.912;12.308;2023-05-07T10:12:15;20.30;99.90
32660;DHT22;19064;47.912;12.308;2023-05-07T10:14:45;20.30;99.90
32660;DHT22;19064;47.912;12.308;2023-05-07T10:17:13;20.40;99.90
32660;DHT22;19064;47.912;12.308;2023-05-07T10:19:44;20.50;99.90
32660;DHT22;19064;47.912;12.308;2023-05-07T10:22:14;20.60;99.90
32660;DHT22;19064;47.912;12.308;2023-05-07T10:24:44;20.50;99.90
32660;DHT22;19064;47.912;12.308;2023-05-07T10:27:17;20.40;99.90
32660;DHT22;19064;47.912;12.308;2023-05-07T10:29:50;20.40;99.90
32660;DHT22;19064;47.912;12.308;2023-05-07T10:32:33;20.30;99.90
32660;DHT22;19064;47.912;12.308;2023-05-07T10:35:06;20.40;99.90
32660;DHT22;19064;47.912;12.308;2023-05-07T10:37:37;20.50;99.90
32660;DHT22;19064;47.912;12.308;2023-05-07T10:40:06;20.80;99.90
32660;DHT22;19064;47.912;12.308;2023-05-07T10:42:35;20.80;99.90
32660;DHT22;19064;47.912;12.308;2023-05-07T10:45:12;21.00;99.90
32660;DHT22;19064;47.912;12.308;2023-05-07T10:48:11;21.10;99.90
32660;DHT22;19064;47.912;12.308;2023-05-07T10:50:41;21.10;99.90
32660;DHT22;19064;47.912;12.308;2023-05-07T10:53:25;21.10;99.90
32660;DHT22;19064;47.912;12.308;2023-05-07T10:56:25;21.10;99.90
32660;DHT22;19064;47.912;12.308;2023-05-07T10:59:30;20.90;99.90
32660;DHT22;19064;47.912;12.308;2023-05-07T11:01:59;21.00;99.90
32660;DHT22;19064;47.912;12.308;2023-05-07T11:04:30;21.10;99.90
32660;DHT22;19064;47.912;12.308;2023-05-07T11:07:27;21.10;99.90
32660;DHT22;19064;47.912;12.308;2023-05-07T11:10:03;21.30;99.90
32660;DHT22;19064;47.912;12.308;2023-05-07T11:12:53;21.40;99.90
32660;DHT22;19064;47.912;12.308;2023-05-07T11:15:40;21.40;99.90
32660;DHT22;19064;47.912;12.308;2023-05-07T11:18:11;21.40;99.90
32660;DHT22;19064;47.912;12.308;2023-05-07T11:20:50;21.20;99.90
32660;DHT22;19064;47.912;12.308;2023-05-07T11:23:55;21.20;99.90
32660;DHT22;19064;47.912;12.308;2023-05-07T11:26:25;21.30;99.90
32660;DHT22;19064;47.912;12.308;2023-05-07T11:28:52;21.50;99.90
32660;DHT22;19064;47.912;12.308;2023-05-07T11:31:26;21.50;99.90
32660;DHT22;19064;47.912;12.308;2023-05-07T11:33:56;21.50;99.90
32660;DHT22;19064;47.912;12.308;2023-05-07T11:36:25;21.50;99.90
32660;DHT22;19064;47.912;12.308;2023-05-07T11:38:52;21.50;99.90
32660;DHT22;19064;47.912;12.308;2023-05-07T11:41:21;21.40;99.90
32660;DHT22;19064;47.912;12.308;2023-05-07T11:43:56;21.40;99.90
32660;DHT22;19064;47.912;12.308;2023-05-07T11:46:29;21.50;99.90
32660;DHT22;19064;47.912;12.308;2023-05-07T11:49:00;21.50;99.90
32660;DHT22;19064;47.912;12.308;2023-05-07T11:51:29;21.50;99.90
32660;DHT22;19064;47.912;12.308;2023-05-07T11:53:56;21.40;99.90
32660;DHT22;19064;47.912;12.308;2023-05-07T11:56:24;21.50;99.90
32660;DHT22;19064;47.912;12.308;2023-05-07T11:58:52;21.70;99.90
32660;DHT22;19064;47.912;12.308;2023-05-07T12:01:20;21.80;99.90
32660;DHT22;19064;47.912;12.308;2023-05-07T12:03:48;21.80;99.90
32660;DHT22;19064;47.912;12.308;2023-05-07T12:06:16;21.80;99.90
32660;DHT22;19064;47.912;12.308;2023-05-07T12:08:46;21.90;99.90
32660;DHT22;19064;47.912;12.308;2023-05-07T12:11:15;21.80;99.90
32660;DHT22;19064;47.912;12.308;2023-05-07T12:13:44;21.80;99.90
32660;DHT22;19064;47.912;12.308;2023-05-07T12:16:12;21.80;99.90
32660;DHT22;19064;47.912;12.308;2023-05-07T12:18:40;21.80;99.90
32660;DHT22;19064;47.912;12.308;2023-05-07T12:21:09;21.90;99.90
32660;DHT22;19064;47.912;12.308;2023-05-07T12:23:38;21.90;99.90
32660;DHT22;19064;47.912;12.308;2023-05-07T12:26:06;21.80;99.90
32660;DHT22;19064;47.912;12.308;2023-05-07T12:28:36;21.70;99.90
32660;DHT22;19064;47.912;12.308;2023-05-07T12:31:06;21.60;99.90
32660;DHT22;19064;47.912;12.308;2023-05-07T12:33:35;21.50;99.90
32660;DHT22;19064;47.912;12.308;2023-05-07T12:36:05;21.40;99.90
32660;DHT22;19064;47.912;12.308;2023-05-07T12:38:38;21.40;99.90
32660;DHT22;19064;47.912;12.308;2023-05-07T12:41:07;21.30;99.90
32660;DHT22;19064;47.912;12.308;2023-05-07T12:43:36;21.40;99.90
32660;DHT22;19064;47.912;12.308;2023-05-07T12:46:06;21.50;99.90
32660;DHT22;19064;47.912;12.308;2023-05-07T12:48:38;21.50;99.90
32660;DHT22;19064;47.912;12.308;2023-05-07T12:51:06;21.60;99.90
32660;DHT22;19064;47.912;12.308;2023-05-07T12:53:41;21.60;99.90
32660;DHT22;19064;47.912;12.308;2023-05-07T12:56:10;21.60;99.90
32660;DHT22;19064;47.912;12.308;2023-05-07T12:58:38;21.70;99.90
32660;DHT22;19064;47.912;12.308;2023-05-07T13:01:07;21.80;99.90
32660;DHT22;19064;47.912;12.308;2023-05-07T13:03:37;21.80;99.90
32660;DHT22;19064;47.912;12.308;2023-05-07T13:06:05;21.80;99.90
32660;DHT22;19064;47.912;12.308;2023-05-07T13:08:35;21.80;99.90
32660;DHT22;19064;47.912;12.308;2023-05-07T13:11:06;21.80;99.90
32660;DHT22;19064;47.912;12.308;2023-05-07T13:13:36;21.70;99.90
32660;DHT22;19064;47.912;12.308;2023-05-07T13:16:05;21.70;99.90
32660;DHT22;19064;47.912;12.308;2023-05-07T13:18:34;21.70;99.90
32660;DHT22;19064;47.912;12.308;2023-05-07T13:21:03;21.70;99.90
32660;DHT22;19064;47.912;12.308;2023-05-07T13:23:30;21.70;99.90
32660;DHT22;19064;47.912;12.308;2023-05-07T13:25:59;21.60;99.90
32660;DHT22;19064;47.912;12.308;2023-05-07T13:28:27;21.60;99.90
32660;DHT22;19064;47.912;12.308;2023-05-07T13:30:54;21.60;99.90
32660;DHT22;19064;47.912;12.308;2023-05-07T13:33:20;21.60;99.90
32660;DHT22;19064;47.912;12.308;2023-05-07T13:35:47;21.60;99.90
32660;DHT22;19064;47.912;12.308;2023-05-07T13:38:14;21.40;99.90
32660;DHT22;19064;47.912;12.308;2023-05-07T13:40:41;21.50;99.90
32660;DHT22;19064;47.912;12.308;2023-05-07T13:43:08;21.40;99.90
32660;DHT22;19064;47.912;12.308;2023-05-07T13:45:37;21.30;99.90
32660;DHT22;19064;47.912;12.308;2023-05-07T13:48:04;21.30;99.90
32660;DHT22;19064;47.912;12.308;2023-05-07T13:50:31;21.20;99.90
32660;DHT22;19064;47.912;12.308;2023-05-07T13:52:57;21.20;99.90
32660;DHT22;19064;47.912;12.308;2023-05-07T13:55:25;21.20;99.90
32660;DHT22;19064;47.912;12.308;2023-05-07T13:57:55;21.10;99.90
32660;DHT22;19064;47.912;12.308;2023-05-07T14:00:23;21.20;99.90
32660;DHT22;19064;47.912;12.308;2023-05-07T14:02:51;21.20;99.90
32660;DHT22;19064;47.912;12.308;2023-05-07T14:05:18;21.20;99.90
32660;DHT22;19064;47.912;12.308;2023-05-07T14:07:45;21.10;99.90
32660;DHT22;19064;47.912;12.308;2023-05-07T14:10:12;21.00;99.90
32660;DHT22;19064;47.912;12.308;2023-05-07T14:12:39;21.00;99.90
32660;DHT22;19064;47.912;12.308;2023-05-07T14:15:07;21.00;99.90
32660;DHT22;19064;47.912;12.308;2023-05-07T14:17:35;21.00;99.90
32660;DHT22;19064;47.912;12.308;2023-05-07T14:20:06;21.10;99.90
32660;DHT22;19064;47.912;12.308;2023-05-07T14:22:33;21.10;99.90
32660;DHT22;19064;47.912;12.308;2023-05-07T14:25:02;21.20;99.90
32660;DHT22;19064;47.912;12.308;2023-05-07T14:27:30;21.20;99.90
32660;DHT22;19064;47.912;12.308;2023-05-07T14:29:58;21.30;99.90
32660;DHT22;19064;47.912;12.308;2023-05-07T14:32:26;21.40;99.90
32660;DHT22;19064;47.912;12.308;2023-05-07T14:34:54;21.40;99.90
32660;DHT22;19064;47.912;12.308;2023-05-07T14:37:24;21.30;99.90
32660;DHT22;19064;47.912;12.308;2023-05-07T14:39:52;21.30;99.90
32660;DHT22;19064;47.912;12.308;2023-05-07T14:42:20;21.30;99.90
32660;DHT22;19064;47.912;12.308;2023-05-07T14:44:48;21.20;99.90
32660;DHT22;19064;47.912;12.308;2023-05-07T14:47:16;21.20;99.90
32660;DHT22;19064;47.912;12.308;2023-05-07T14:49:43;21.10;99.90
32660;DHT22;19064;47.912;12.308;2023-05-07T14:52:11;21.00;99.90
32660;DHT22;19064;47.912;12.308;2023-05-07T14:54:44;21.00;99.90
32660;DHT22;19064;47.912;12.308;2023-05-07T14:57:13;20.80;99.90
32660;DHT22;19064;47.912;12.308;2023-05-07T14:59:42;20.90;99.90
32660;DHT22;19064;47.912;12.308;2023-05-07T15:02:11;20.80;99.90
32660;DHT22;19064;47.912;12.308;2023-05-07T15:04:39;20.90;99.90
32660;DHT22;19064;47.912;12.308;2023-05-07T15:07:12;20.90;99.90
32660;DHT22;19064;47.912;12.308;2023-05-07T15:09:43;20.80;99.90
32660;DHT22;19064;47.912;12.308;2023-05-07T15:12:11;20.80;99.90
32660;DHT22;19064;47.912;12.308;2023-05-07T15:14:39;20.80;99.90
32660;DHT22;19064;47.912;12.308;2023-05-07T15:17:08;20.80;99.90
32660;DHT22;19064;47.912;12.308;2023-05-07T15:19:36;20.70;99.90
32660;DHT22;19064;47.912;12.308;2023-05-07T15:22:04;20.60;99.90
32660;DHT22;19064;47.912;12.308;2023-05-07T15:24:32;20.60;99.90